Terminal Aerodrome Forecast
Issued by NWS Cleveland, OH

Home | Current Version | Previous Version | Text Only | Print | Product List | Glossary On
Versions: 1 2 3 4 5 6 7 8 9 10 11 12
000
FTUS41 KCLE 060540
TAFERI
TAF
KERI 060540Z 0606/0706 16005KT P6SM SCT100 BKN200
     FM061600 16005KT P6SM VCSH BKN050 OVC100
     FM062100 32005KT P6SM BKN100
     FM070000 18005KT P6SM SCT250=

USA.gov is the U.S. government's official web portal to all federal, state and local government web resources and services.